Time;durP1;ratioP1;P1;durP2;ratioP2;P2;SDS_P1;SDS_P2;PMS_P1;PMS_P2;Temp;Humidity;BMP_temperature;BMP_pressure;BME280_temperature;BME280_humidity;BME280_pressure;Samples;Min_cycle;Max_cycle;Signal;HPM_P1;HPM_P2
2023/12/11 00:00:33;;;;;;;0.40;0.40;;;9.70;99.90;;;;;;5071694;28;20453;-79
2023/12/11 00:02:59;;;;;;;1.17;0.90;;;9.70;99.90;;;;;;5073025;28;20250;-78
2023/12/11 00:05:26;;;;;;;2.90;1.65;;;9.70;99.90;;;;;;5073858;28;20521;-80
2023/12/11 00:07:53;;;;;;;4.20;3.23;;;9.70;99.90;;;;;;5070407;28;20724;-77
2023/12/11 00:10:20;;;;;;;0.70;0.70;;;9.70;99.90;;;;;;5072386;28;20452;-80
2023/12/11 00:12:48;;;;;;;5.60;3.27;;;9.70;99.90;;;;;;5072376;28;20273;-79
2023/12/11 00:15:15;;;;;;;0.40;0.40;;;9.70;99.90;;;;;;5072008;28;20867;-80
2023/12/11 00:17:42;;;;;;;0.60;0.60;;;9.70;99.90;;;;;;5072842;28;20863;-80
2023/12/11 00:20:10;;;;;;;0.40;0.40;;;9.70;99.90;;;;;;5069159;28;20286;-80
2023/12/11 00:22:36;;;;;;;0.60;0.60;;;9.70;99.90;;;;;;5068025;28;20984;-79
2023/12/11 00:25:03;;;;;;;5.27;1.73;;;9.70;99.90;;;;;;5070322;28;20191;-79
2023/12/11 00:27:31;;;;;;;0.40;0.40;;;9.70;99.90;;;;;;5072661;28;20451;-78
2023/12/11 00:29:59;;;;;;;3.80;1.00;;;9.80;99.90;;;;;;5071575;28;20865;-80
2023/12/11 00:32:26;;;;;;;0.87;0.60;;;9.80;99.90;;;;;;5070605;28;20923;-80
2023/12/11 00:34:53;;;;;;;3.63;1.83;;;9.80;99.90;;;;;;5070767;28;20501;-79
2023/12/11 00:37:20;;;;;;;1.43;1.17;;;9.80;99.90;;;;;;5070545;28;20456;-80
2023/12/11 00:39:47;;;;;;;0.70;0.70;;;9.80;99.90;;;;;;5070359;28;20480;-79
2023/12/11 00:42:14;;;;;;;2.20;1.00;;;9.70;99.90;;;;;;5066565;28;20457;-80
2023/12/11 00:44:40;;;;;;;3.13;2.93;;;9.70;99.90;;;;;;5065975;28;20489;-79
2023/12/11 00:47:10;;;;;;;8.20;1.53;;;9.70;99.90;;;;;;5068878;28;20462;-80
2023/12/11 00:49:37;;;;;;;0.90;0.83;;;9.70;99.90;;;;;;5069481;28;20437;-80
2023/12/11 00:52:04;;;;;;;0.50;0.40;;;9.70;99.90;;;;;;5067636;28;20571;-79
2023/12/11 00:54:31;;;;;;;0.60;0.60;;;9.70;99.90;;;;;;5065283;28;20481;-80
2023/12/11 00:56:58;;;;;;;1.67;0.97;;;9.80;99.90;;;;;;5073266;28;20527;-79
2023/12/11 00:59:25;;;;;;;3.33;1.00;;;9.70;99.90;;;;;;5064951;28;20461;-79
2023/12/11 01:01:52;;;;;;;2.93;0.50;;;9.80;99.90;;;;;;5063953;28;20472;-79
2023/12/11 01:04:21;;;;;;;0.53;0.53;;;9.80;99.90;;;;;;5066555;28;20463;-79
2023/12/11 01:06:47;;;;;;;3.90;3.07;;;9.80;99.90;;;;;;5066297;28;20520;-79
2023/12/11 01:09:14;;;;;;;0.40;0.30;;;9.90;99.90;;;;;;5065014;28;20479;-79
2023/12/11 01:11:41;;;;;;;18.47;1.27;;;9.90;99.90;;;;;;5064611;28;20250;-79
2023/12/11 01:14:08;;;;;;;1.53;1.47;;;9.90;99.90;;;;;;5064014;28;20505;-79
2023/12/11 01:16:35;;;;;;;2.30;1.00;;;9.90;99.90;;;;;;5063325;28;20429;-80
2023/12/11 01:19:02;;;;;;;3.00;1.23;;;9.90;99.90;;;;;;5061980;28;20293;-79
2023/12/11 01:21:30;;;;;;;1.77;0.90;;;9.90;99.90;;;;;;5059719;28;20650;-79
2023/12/11 01:23:57;;;;;;;0.50;0.30;;;9.90;99.90;;;;;;5059795;28;20536;-79
2023/12/11 01:26:24;;;;;;;2.10;0.80;;;9.90;99.90;;;;;;5063243;28;20792;-79
2023/12/11 01:28:51;;;;;;;9.27;1.90;;;9.90;99.90;;;;;;5062791;28;20515;-79
2023/12/11 01:31:18;;;;;;;7.18;4.53;;;9.80;99.90;;;;;;5059521;28;20801;-79
2023/12/11 01:33:45;;;;;;;4.90;1.83;;;9.80;99.90;;;;;;5059562;28;20301;-78
2023/12/11 01:36:12;;;;;;;4.33;1.73;;;9.80;99.90;;;;;;5070235;28;20291;-79
2023/12/11 01:38:40;;;;;;;0.40;0.40;;;9.80;99.90;;;;;;5063077;28;20516;-78
2023/12/11 01:41:07;;;;;;;3.90;1.27;;;9.80;99.90;;;;;;5061685;28;20515;-78
2023/12/11 01:43:34;;;;;;;0.80;0.77;;;9.70;99.90;;;;;;5064999;28;20484;-79
2023/12/11 01:46:05;;;;;;;1.42;1.33;;;9.70;99.90;;;;;;5068486;28;20293;-79
2023/12/11 01:48:32;;;;;;;0.60;0.60;;;9.70;99.90;;;;;;5074337;28;20191;-79
2023/12/11 01:50:59;;;;;;;0.77;0.75;;;9.70;99.90;;;;;;5073403;28;20269;-79
2023/12/11 01:53:28;;;;;;;2.35;0.82;;;9.70;99.90;;;;;;5077152;28;20244;-79
2023/12/11 01:55:56;;;;;;;0.47;0.43;;;9.60;99.90;;;;;;5077600;28;20205;-80
2023/12/11 01:58:24;;;;;;;3.03;1.90;;;9.60;99.90;;;;;;5072616;28;20210;-80
2023/12/11 02:00:51;;;;;;;1.17;0.70;;;9.70;99.90;;;;;;5073737;28;20203;-79
2023/12/11 02:03:19;;;;;;;4.80;1.08;;;9.70;99.90;;;;;;5076670;28;20275;-80
2023/12/11 02:05:46;;;;;;;0.50;0.50;;;9.70;99.90;;;;;;5077378;28;20233;-80
2023/12/11 02:08:13;;;;;;;2.25;0.70;;;9.70;99.90;;;;;;5077040;28;20229;-79
2023/12/11 02:10:40;;;;;;;8.60;2.40;;;9.70;99.90;;;;;;5079297;28;20199;-80
2023/12/11 02:13:09;;;;;;;0.50;0.50;;;9.60;99.90;;;;;;5074037;28;20540;-79
2023/12/11 02:15:43;;;;;;;0.95;0.95;;;9.60;99.90;;;;;;5076229;28;20464;-80
2023/12/11 02:18:12;;;;;;;4.10;2.05;;;9.60;99.90;;;;;;5075397;28;20232;-80
2023/12/11 02:20:39;;;;;;;10.10;3.40;;;9.60;99.90;;;;;;5073076;28;20230;-79
2023/12/11 02:23:11;;;;;;;8.07;1.83;;;9.60;99.90;;;;;;5073682;28;20294;-80
2023/12/11 02:25:40;;;;;;;1.10;0.90;;;9.60;99.90;;;;;;5076093;28;20232;-80
2023/12/11 02:28:08;;;;;;;4.43;0.70;;;9.60;99.90;;;;;;5075654;28;20507;-79
2023/12/11 02:30:37;;;;;;;8.23;2.15;;;9.60;99.90;;;;;;5072823;28;20226;-79
2023/12/11 02:33:04;;;;;;;3.10;1.95;;;9.70;99.90;;;;;;5081007;28;20218;-78
2023/12/11 02:35:32;;;;;;;1.48;1.42;;;9.70;99.90;;;;;;5075385;28;20210;-78
2023/12/11 02:37:59;;;;;;;0.70;0.70;;;9.70;99.90;;;;;;5075501;28;20263;-80
2023/12/11 02:40:25;;;;;;;2.67;1.33;;;9.80;99.90;;;;;;5067262;28;20490;-79
2023/12/11 02:42:52;;;;;;;6.60;2.10;;;9.80;99.90;;;;;;5076591;28;20218;-80
2023/12/11 02:45:20;;;;;;;7.78;0.98;;;9.80;99.90;;;;;;5074747;28;20434;-80
2023/12/11 02:47:47;;;;;;;8.30;1.37;;;9.80;99.90;;;;;;5078918;28;20231;-80
2023/12/11 02:50:14;;;;;;;4.65;1.77;;;9.70;99.90;;;;;;5081356;28;20468;-79
2023/12/11 02:52:41;;;;;;;15.73;3.27;;;9.70;99.90;;;;;;5072905;28;20320;-79
2023/12/11 02:55:08;;;;;;;2.70;0.50;;;9.70;99.90;;;;;;5072247;28;20509;-79
2023/12/11 02:57:35;;;;;;;0.60;0.60;;;9.70;99.90;;;;;;5076388;28;20197;-80
2023/12/11 03:00:02;;;;;;;7.00;1.60;;;9.70;99.90;;;;;;5068399;28;20448;-79
2023/12/11 03:02:30;;;;;;;6.83;2.00;;;9.70;99.90;;;;;;5067343;28;20183;-79
2023/12/11 03:04:57;;;;;;;4.43;0.73;;;9.70;99.90;;;;;;5077164;28;20437;-80
2023/12/11 03:07:24;;;;;;;4.20;1.23;;;9.70;99.90;;;;;;5075736;28;20457;-79
2023/12/11 03:09:51;;;;;;;5.38;1.85;;;9.70;99.90;;;;;;5072141;28;21019;-79
2023/12/11 03:12:18;;;;;;;1.90;0.73;;;9.70;99.90;;;;;;5074007;28;20250;-80
2023/12/11 03:14:45;;;;;;;46.07;4.63;;;9.70;99.90;;;;;;5075167;28;20458;-79
2023/12/11 03:17:12;;;;;;;3.00;1.60;;;9.70;99.90;;;;;;5074012;28;20441;-79
2023/12/11 03:19:40;;;;;;;2.10;1.90;;;9.70;99.90;;;;;;5077251;28;20195;-79
2023/12/11 03:22:07;;;;;;;0.70;0.70;;;9.70;99.90;;;;;;5075780;28;20468;-79
2023/12/11 03:24:34;;;;;;;4.93;1.02;;;9.70;99.90;;;;;;5073242;28;20238;-80
2023/12/11 03:27:01;;;;;;;1.73;1.35;;;9.80;99.90;;;;;;5073041;28;20241;-80
2023/12/11 03:29:27;;;;;;;12.57;2.28;;;9.80;99.90;;;;;;5074679;28;20195;-79
2023/12/11 03:31:55;;;;;;;4.50;0.93;;;9.80;99.90;;;;;;5075720;28;20216;-80
2023/12/11 03:34:22;;;;;;;14.35;1.90;;;9.90;99.90;;;;;;5076941;28;20669;-80
2023/12/11 03:36:50;;;;;;;5.90;1.42;;;9.90;99.90;;;;;;5076471;28;20190;-79
2023/12/11 03:39:17;;;;;;;10.93;2.50;;;10.00;99.90;;;;;;5074416;28;20225;-80
2023/12/11 03:41:45;;;;;;;2.97;1.20;;;10.00;99.90;;;;;;5073367;28;20226;-79
2023/12/11 03:44:11;;;;;;;2.50;1.38;;;10.00;99.90;;;;;;5075264;28;20488;-79
2023/12/11 03:46:38;;;;;;;5.88;1.60;;;9.90;99.90;;;;;;5078275;28;20198;-79
2023/12/11 03:49:05;;;;;;;0.50;0.40;;;9.70;99.90;;;;;;5078456;28;20233;-80
2023/12/11 03:51:32;;;;;;;3.50;1.13;;;9.60;99.90;;;;;;5075663;28;20225;-80
2023/12/11 03:54:00;;;;;;;1.43;0.90;;;9.40;99.90;;;;;;5075264;28;20518;-80
2023/12/11 03:56:27;;;;;;;0.88;0.88;;;9.40;99.90;;;;;;5083697;28;20447;-77
2023/12/11 03:58:54;;;;;;;0.50;0.50;;;9.20;99.90;;;;;;5075060;28;20225;-80
2023/12/11 04:01:21;;;;;;;6.57;1.55;;;9.20;99.90;;;;;;5075339;28;20203;-80
2023/12/11 04:03:48;;;;;;;1.35;0.70;;;9.20;99.90;;;;;;5077112;28;20237;-80
2023/12/11 04:06:15;;;;;;;11.05;3.25;;;9.20;99.90;;;;;;5077735;28;20195;-80
2023/12/11 04:08:42;;;;;;;6.60;2.35;;;9.10;99.90;;;;;;5071478;28;20286;-79
2023/12/11 04:11:10;;;;;;;1.15;1.05;;;9.20;99.90;;;;;;5068635;28;20237;-80
2023/12/11 04:13:37;;;;;;;3.13;1.67;;;9.20;99.90;;;;;;5069149;28;20260;-79
2023/12/11 04:16:05;;;;;;;4.00;0.60;;;9.20;99.90;;;;;;5069854;28;20237;-79
2023/12/11 04:18:33;;;;;;;6.70;1.83;;;9.30;99.90;;;;;;5065355;28;20502;-79
2023/12/11 04:21:00;;;;;;;8.18;1.77;;;9.30;99.90;;;;;;5064941;28;20191;-80
2023/12/11 04:23:27;;;;;;;2.60;0.70;;;9.40;99.90;;;;;;5067208;28;20257;-79
2023/12/11 04:25:54;;;;;;;8.90;1.73;;;9.40;99.90;;;;;;5069622;28;20190;-80
2023/12/11 04:28:22;;;;;;;31.15;1.38;;;9.40;99.90;;;;;;5069237;28;20666;-79
2023/12/11 04:30:49;;;;;;;2.90;0.98;;;9.50;99.90;;;;;;5072505;28;20222;-80
2023/12/11 04:33:16;;;;;;;1.73;0.52;;;9.50;99.90;;;;;;5071464;28;20253;-79
2023/12/11 04:35:44;;;;;;;2.58;2.30;;;9.50;99.90;;;;;;5073342;28;20278;-80
2023/12/11 04:38:22;;;;;;;0.50;0.45;;;9.50;99.90;;;;;;5070112;28;20198;-79
2023/12/11 04:40:49;;;;;;;6.28;1.02;;;9.40;99.90;;;;;;5072515;28;20202;-80
2023/12/11 04:43:16;;;;;;;3.75;1.88;;;9.30;99.90;;;;;;5072659;28;20260;-80
2023/12/11 04:45:44;;;;;;;0.60;0.60;;;9.20;99.90;;;;;;5068821;28;20225;-80
2023/12/11 04:48:11;;;;;;;1.23;1.13;;;9.10;99.90;;;;;;5075414;28;20191;-80
2023/12/11 04:50:37;;;;;;;3.47;1.67;;;9.10;99.90;;;;;;5072974;28;20242;-79
2023/12/11 04:53:04;;;;;;;7.75;2.22;;;9.10;99.90;;;;;;5072672;28;20344;-81
2023/12/11 04:55:32;;;;;;;2.58;1.25;;;9.20;99.90;;;;;;5072157;28;20649;-80
2023/12/11 04:57:59;;;;;;;3.83;1.30;;;9.10;99.90;;;;;;5073294;28;20285;-80
2023/12/11 05:00:26;;;;;;;1.20;0.60;;;9.20;99.90;;;;;;5071368;28;20221;-80
2023/12/11 05:02:54;;;;;;;6.18;0.90;;;9.20;99.90;;;;;;5074720;28;20210;-80
2023/12/11 05:05:21;;;;;;;6.40;1.67;;;9.20;99.90;;;;;;5074244;28;20195;-82
2023/12/11 05:07:48;;;;;;;0.85;0.85;;;9.20;99.90;;;;;;5077631;28;20202;-82
2023/12/11 05:10:15;;;;;;;3.65;2.05;;;9.20;99.90;;;;;;5077289;28;20190;-81
2023/12/11 05:12:42;;;;;;;0.50;0.50;;;9.20;99.90;;;;;;5067284;28;20221;-82
2023/12/11 05:15:10;;;;;;;1.55;1.42;;;9.20;99.90;;;;;;5078380;28;20218;-80
2023/12/11 05:17:36;;;;;;;0.50;0.40;;;9.20;99.90;;;;;;5073645;28;20229;-81
2023/12/11 05:20:06;;;;;;;4.65;0.50;;;9.10;99.90;;;;;;5072844;28;20223;-81
2023/12/11 05:22:33;;;;;;;1.95;1.25;;;9.10;99.90;;;;;;5072628;28;20187;-81
2023/12/11 05:25:00;;;;;;;0.70;0.70;;;9.00;99.90;;;;;;5077911;28;20187;-81
2023/12/11 05:27:26;;;;;;;0.55;0.50;;;9.00;99.90;;;;;;5072110;28;20229;-80
2023/12/11 05:29:53;;;;;;;0.70;0.60;;;9.00;99.90;;;;;;5070926;28;20195;-80
2023/12/11 05:32:20;;;;;;;2.90;1.40;;;8.90;99.90;;;;;;5071557;28;20190;-80
2023/12/11 05:34:47;;;;;;;1.88;0.88;;;9.00;99.90;;;;;;5074514;28;20206;-80
2023/12/11 05:37:15;;;;;;;4.72;1.52;;;8.90;99.90;;;;;;5068647;28;20225;-79
2023/12/11 05:39:42;;;;;;;2.70;0.50;;;8.90;99.90;;;;;;5066950;28;20190;-78
2023/12/11 05:42:09;;;;;;;5.35;2.38;;;9.00;99.90;;;;;;5067787;28;20224;-78
2023/12/11 05:44:36;;;;;;;0.80;0.80;;;9.00;99.90;;;;;;5066227;28;20207;-79
2023/12/11 05:47:03;;;;;;;1.70;1.60;;;8.90;99.90;;;;;;5068972;28;20618;-78
2023/12/11 05:49:30;;;;;;;1.13;0.70;;;9.00;99.90;;;;;;5064453;28;20229;-78
2023/12/11 05:51:57;;;;;;;0.40;0.40;;;9.00;99.90;;;;;;5061740;28;20199;-79
2023/12/11 05:54:26;;;;;;;1.08;0.50;;;9.00;99.90;;;;;;5061654;28;20215;-78
2023/12/11 05:56:52;;;;;;;6.90;1.55;;;9.00;99.90;;;;;;5071770;28;20191;-81
2023/12/11 05:59:19;;;;;;;1.88;1.45;;;9.00;99.90;;;;;;5072442;28;20198;-81
2023/12/11 06:01:47;;;;;;;3.85;1.23;;;9.10;99.90;;;;;;5065151;28;20225;-79
2023/12/11 06:04:14;;;;;;;5.50;2.75;;;9.20;99.90;;;;;;5072671;28;20746;-81
2023/12/11 06:06:41;;;;;;;18.92;1.60;;;9.20;99.90;;;;;;5073587;28;20195;-80
2023/12/11 06:09:08;;;;;;;19.27;2.15;;;9.30;99.90;;;;;;5072433;28;20700;-81
2023/12/11 06:11:36;;;;;;;1.77;0.80;;;9.30;99.90;;;;;;5073036;28;20543;-82
2023/12/11 06:14:03;;;;;;;6.28;1.95;;;9.40;99.90;;;;;;5072946;28;20250;-81
2023/12/11 06:16:30;;;;;;;3.00;1.40;;;9.40;99.90;;;;;;5073341;28;20191;-80
2023/12/11 06:18:57;;;;;;;2.08;1.08;;;9.40;99.90;;;;;;5072594;28;20194;-81
2023/12/11 06:21:25;;;;;;;7.15;1.67;;;9.50;99.90;;;;;;5073326;28;20241;-80
2023/12/11 06:23:52;;;;;;;21.60;1.48;;;9.50;99.90;;;;;;5072976;28;20632;-80
2023/12/11 06:26:29;;;;;;;0.98;0.82;;;9.50;99.90;;;;;;5074560;28;20227;-81
2023/12/11 06:28:59;;;;;;;3.00;1.25;;;9.50;99.90;;;;;;5083263;28;20170;-80
2023/12/11 06:31:26;;;;;;;5.30;2.90;;;9.60;99.90;;;;;;5085193;28;20198;-79
2023/12/11 06:33:53;;;;;;;4.10;1.75;;;9.60;99.90;;;;;;5093981;28;20666;-82
2023/12/11 06:36:21;;;;;;;1.48;0.88;;;9.60;99.90;;;;;;5087113;28;20194;-80
2023/12/11 06:38:50;;;;;;;0.57;0.50;;;9.60;99.90;;;;;;5092513;28;20205;-81
2023/12/11 06:41:17;;;;;;;3.60;0.98;;;9.60;99.90;;;;;;5091258;28;20238;-81
2023/12/11 06:43:44;;;;;;;2.17;1.00;;;9.60;99.90;;;;;;5087359;28;20293;-81
2023/12/11 06:46:15;;;;;;;3.10;1.05;;;9.60;99.90;;;;;;5089324;28;20422;-81
2023/12/11 06:48:41;;;;;;;6.37;2.20;;;9.60;99.90;;;;;;5087760;28;20210;-80
2023/12/11 06:51:08;;;;;;;3.90;0.93;;;9.60;99.90;;;;;;5087207;28;20429;-81
2023/12/11 06:53:35;;;;;;;4.00;2.55;;;9.50;99.90;;;;;;5085449;28;20485;-80
2023/12/11 06:56:03;;;;;;;2.10;1.50;;;9.50;99.90;;;;;;5087708;28;20217;-81
2023/12/11 06:58:30;;;;;;;2.70;2.17;;;9.50;99.90;;;;;;5082021;28;20447;-81
2023/12/11 07:00:58;;;;;;;10.88;4.50;;;9.40;99.90;;;;;;5087057;28;20265;-81
2023/12/11 07:03:27;;;;;;;1.85;0.95;;;9.40;99.90;;;;;;5084861;28;20233;-78
2023/12/11 07:05:54;;;;;;;24.02;1.70;;;9.40;99.90;;;;;;5077644;28;20661;-81
2023/12/11 07:08:21;;;;;;;1.92;1.88;;;9.40;99.90;;;;;;5077622;28;20673;-81
2023/12/11 07:10:47;;;;;;;11.27;2.53;;;9.40;99.90;;;;;;5078344;28;20206;-81
2023/12/11 07:13:14;;;;;;;2.35;2.20;;;9.40;99.90;;;;;;5078253;28;20214;-81
2023/12/11 07:15:41;;;;;;;1.15;0.98;;;9.40;99.90;;;;;;5080765;28;20198;-81
2023/12/11 07:18:10;;;;;;;6.80;1.67;;;9.40;99.90;;;;;;5075000;28;20218;-80
2023/12/11 07:20:38;;;;;;;7.13;2.67;;;9.50;99.90;;;;;;5071295;28;20208;-81
2023/12/11 07:23:07;;;;;;;0.50;0.40;;;9.50;99.90;;;;;;5074783;28;20214;-80
2023/12/11 07:25:35;;;;;;;5.35;3.30;;;9.50;99.90;;;;;;5069442;28;20273;-81
2023/12/11 07:28:01;;;;;;;14.82;1.88;;;9.50;99.90;;;;;;5079681;28;20187;-81
2023/12/11 07:30:28;;;;;;;2.45;0.70;;;9.50;99.90;;;;;;5063051;28;20219;-81
2023/12/11 07:32:55;;;;;;;1.77;1.60;;;9.50;99.90;;;;;;5068484;28;20211;-80
2023/12/11 07:35:22;;;;;;;4.40;1.67;;;9.40;99.90;;;;;;5068411;28;20214;-80
2023/12/11 07:37:50;;;;;;;1.50;0.70;;;9.40;99.90;;;;;;5069606;28;20215;-80
2023/12/11 07:40:18;;;;;;;5.93;2.05;;;9.40;99.90;;;;;;5075762;28;20222;-80
2023/12/11 07:42:45;;;;;;;1.67;1.58;;;9.40;99.90;;;;;;5069758;28;20249;-80
2023/12/11 07:45:12;;;;;;;2.60;1.42;;;9.40;99.90;;;;;;5074820;28;20715;-80
2023/12/11 07:47:39;;;;;;;1.13;1.02;;;9.40;99.90;;;;;;5070892;28;20225;-80
2023/12/11 07:50:07;;;;;;;0.60;0.60;;;9.40;99.90;;;;;;5073810;28;20191;-80
2023/12/11 07:52:34;;;;;;;1.40;0.77;;;9.40;99.90;;;;;;5072864;28;20222;-80
2023/12/11 07:55:02;;;;;;;7.47;1.92;;;9.40;99.90;;;;;;5070294;28;20257;-80
2023/12/11 07:57:29;;;;;;;0.80;0.68;;;9.40;99.90;;;;;;5077968;28;20712;-80
2023/12/11 07:59:56;;;;;;;10.30;3.85;;;9.40;99.90;;;;;;5072783;28;20194;-80
2023/12/11 08:02:23;;;;;;;4.03;2.38;;;9.40;99.90;;;;;;5080678;28;20724;-81
2023/12/11 08:04:50;;;;;;;16.27;2.25;;;9.40;99.90;;;;;;5069789;28;20293;-80
2023/12/11 08:07:18;;;;;;;0.52;0.52;;;9.40;99.90;;;;;;5072428;28;20271;-80
2023/12/11 08:09:45;;;;;;;5.03;1.10;;;9.40;99.90;;;;;;5069827;28;20208;-80
2023/12/11 08:12:13;;;;;;;1.58;1.48;;;9.30;99.90;;;;;;5073727;28;20219;-80
2023/12/11 08:14:40;;;;;;;0.40;0.40;;;9.30;99.90;;;;;;5076949;28;20214;-80
2023/12/11 08:17:07;;;;;;;0.77;0.70;;;9.30;99.90;;;;;;5066296;28;20191;-81
2023/12/11 08:19:34;;;;;;;0.40;0.30;;;9.30;99.90;;;;;;5067767;28;20196;-78
2023/12/11 08:22:01;;;;;;;6.32;1.20;;;9.40;99.90;;;;;;5077145;28;20195;-81
2023/12/11 08:24:28;;;;;;;0.85;0.50;;;9.40;99.90;;;;;;5074012;28;20249;-78
2023/12/11 08:26:55;;;;;;;1.00;0.90;;;9.50;99.90;;;;;;5070592;28;20226;-80
2023/12/11 08:29:23;;;;;;;75.53;10.15;;;9.50;99.90;;;;;;5081131;28;20213;-81
2023/12/11 08:31:50;;;;;;;2.13;1.05;;;9.50;99.90;;;;;;5067635;28;20194;-82
2023/12/11 08:34:19;;;;;;;4.65;1.40;;;9.50;99.90;;;;;;5063946;28;20268;-80
2023/12/11 08:36:46;;;;;;;2.78;1.08;;;9.50;99.90;;;;;;5067775;28;20242;-80
2023/12/11 08:39:13;;;;;;;13.05;1.13;;;9.50;99.90;;;;;;5066958;28;20241;-79
2023/12/11 08:41:40;;;;;;;8.32;2.60;;;9.50;99.90;;;;;;5065876;28;20199;-79
2023/12/11 08:44:07;;;;;;;10.52;2.35;;;9.50;99.90;;;;;;5077373;28;20256;-82
2023/12/11 08:46:37;;;;;;;3.13;0.88;;;9.50;99.90;;;;;;5076819;28;20194;-82
2023/12/11 08:49:04;;;;;;;9.35;1.65;;;9.50;99.90;;;;;;5071268;28;20192;-80
2023/12/11 08:51:31;;;;;;;11.73;1.20;;;9.60;99.90;;;;;;5074265;28;20221;-81
2023/12/11 08:53:58;;;;;;;1.50;1.40;;;9.60;99.90;;;;;;5076358;28;20237;-80
2023/12/11 08:56:25;;;;;;;6.05;1.70;;;9.60;99.90;;;;;;5075872;28;20190;-80
2023/12/11 08:58:52;;;;;;;8.68;3.53;;;9.50;99.90;;;;;;5067417;28;20194;-81
2023/12/11 09:01:19;;;;;;;2.78;1.25;;;9.50;99.90;;;;;;5064058;28;20190;-81
2023/12/11 09:03:48;;;;;;;0.88;0.55;;;9.40;99.90;;;;;;5070173;28;20219;-81
2023/12/11 09:06:15;;;;;;;4.53;0.73;;;9.50;99.90;;;;;;5071598;28;20191;-80
2023/12/11 09:08:42;;;;;;;12.30;3.22;;;9.50;99.90;;;;;;5060883;28;20191;-81
2023/12/11 09:11:09;;;;;;;8.07;1.58;;;9.50;99.90;;;;;;5079644;28;20191;-80
2023/12/11 09:13:36;;;;;;;5.75;1.05;;;9.60;99.90;;;;;;5065123;28;20255;-81
2023/12/11 09:16:03;;;;;;;0.50;0.40;;;9.60;99.90;;;;;;5060278;28;20214;-81
2023/12/11 09:18:30;;;;;;;0.40;0.40;;;9.60;99.90;;;;;;5068524;28;20444;-80
2023/12/11 09:20:59;;;;;;;0.53;0.53;;;9.70;99.90;;;;;;5064690;28;20658;-81
2023/12/11 09:23:26;;;;;;;4.43;1.80;;;9.80;99.90;;;;;;5064972;28;20457;-79
2023/12/11 09:25:53;;;;;;;2.03;0.95;;;9.80;99.90;;;;;;5065373;28;20219;-81
2023/12/11 09:28:20;;;;;;;0.75;0.75;;;9.90;99.90;;;;;;5064358;28;20629;-81
2023/12/11 09:30:47;;;;;;;6.55;2.25;;;9.90;99.90;;;;;;5072457;28;20194;-82
2023/12/11 09:33:13;;;;;;;0.98;0.98;;;9.90;99.90;;;;;;5064685;28;20214;-81
2023/12/11 09:35:41;;;;;;;0.95;0.95;;;9.90;99.90;;;;;;5073311;28;20626;-79
2023/12/11 09:38:10;;;;;;;14.30;4.40;;;9.90;99.90;;;;;;5068407;28;20214;-79
2023/12/11 09:40:37;;;;;;;0.82;0.82;;;9.90;99.90;;;;;;5076379;28;20437;-79
2023/12/11 09:43:04;;;;;;;0.40;0.40;;;10.00;99.90;;;;;;5068349;28;20215;-82
2023/12/11 09:45:32;;;;;;;0.50;0.50;;;9.90;99.90;;;;;;5068432;28;20658;-81
2023/12/11 09:47:59;;;;;;;0.40;0.40;;;9.90;99.90;;;;;;5066788;28;20491;-81
2023/12/11 09:50:26;;;;;;;3.47;1.17;;;9.90;99.90;;;;;;5065267;28;20448;-81
2023/12/11 09:52:55;;;;;;;9.03;1.30;;;9.80;99.90;;;;;;5067569;28;20461;-80
2023/12/11 09:55:23;;;;;;;0.98;0.50;;;9.70;99.90;;;;;;5069070;28;20530;-81
2023/12/11 09:57:51;;;;;;;0.77;0.77;;;9.60;99.90;;;;;;5067574;28;20612;-81
2023/12/11 10:00:19;;;;;;;10.60;1.70;;;9.50;99.90;;;;;;5066142;28;20188;-80
2023/12/11 10:02:51;;;;;;;2.45;1.90;;;9.40;99.90;;;;;;5065731;28;20454;-80
2023/12/11 10:05:25;;;;;;;0.85;0.43;;;9.40;99.90;;;;;;5070430;28;20189;-81
2023/12/11 10:07:52;;;;;;;0.82;0.70;;;9.30;99.90;;;;;;5071701;28;20228;-81
2023/12/11 10:10:25;;;;;;;2.78;1.00;;;9.30;99.90;;;;;;5075516;28;20197;-81
2023/12/11 10:12:53;;;;;;;2.85;0.60;;;9.20;99.90;;;;;;5071649;28;20275;-81
2023/12/11 10:15:22;;;;;;;0.65;0.65;;;9.30;99.90;;;;;;5069302;28;20219;-81
2023/12/11 10:18:04;;;;;;;1.10;1.00;;;9.30;99.90;;;;;;5078191;28;20195;-81
2023/12/11 10:20:31;;;;;;;0.88;0.40;;;9.30;99.90;;;;;;5069075;28;20191;-82
2023/12/11 10:22:59;;;;;;;0.95;0.73;;;9.30;99.90;;;;;;5071079;28;20222;-81
2023/12/11 10:25:30;;;;;;;0.60;0.57;;;9.30;99.90;;;;;;5080632;28;20226;-81
2023/12/11 10:28:09;;;;;;;4.07;3.78;;;9.40;99.90;;;;;;5072443;28;20662;-79
2023/12/11 10:30:49;;;;;;;0.40;0.40;;;9.50;99.90;;;;;;5072487;28;20224;-82
2023/12/11 10:33:16;;;;;;;0.80;0.60;;;9.50;99.90;;;;;;5064475;28;20214;-82
2023/12/11 10:35:43;;;;;;;0.93;0.70;;;9.60;99.90;;;;;;5072541;28;20215;-81
2023/12/11 10:38:10;;;;;;;0.65;0.65;;;9.60;99.90;;;;;;5064239;28;20277;-78
2023/12/11 10:40:40;;;;;;;3.00;1.42;;;9.60;99.90;;;;;;5073562;28;20191;-78
2023/12/11 10:43:07;;;;;;;1.27;1.20;;;9.70;99.90;;;;;;5070696;28;20246;-80
2023/12/11 10:45:35;;;;;;;3.13;1.35;;;9.70;99.90;;;;;;5069669;28;20554;-81
2023/12/11 10:48:03;;;;;;;1.05;0.75;;;9.70;99.90;;;;;;5067709;28;20221;-81
2023/12/11 10:50:30;;;;;;;1.42;0.60;;;9.70;99.90;;;;;;5072669;28;20217;-80
2023/12/11 10:53:00;;;;;;;0.50;0.50;;;9.70;99.90;;;;;;5069453;28;20210;-81
2023/12/11 10:55:29;;;;;;;0.60;0.57;;;9.70;99.90;;;;;;5074064;28;20206;-82
2023/12/11 10:57:58;;;;;;;0.53;0.53;;;9.70;99.90;;;;;;5075109;28;20447;-80
2023/12/11 11:00:26;;;;;;;0.50;0.40;;;9.60;99.90;;;;;;5083729;28;20451;-78
2023/12/11 11:02:56;;;;;;;1.05;0.98;;;9.70;99.90;;;;;;5078616;28;20343;-80
2023/12/11 11:05:25;;;;;;;1.98;0.77;;;9.60;99.90;;;;;;5071205;28;20222;-81
2023/12/11 11:08:00;;;;;;;0.50;0.50;;;9.60;99.90;;;;;;5068169;28;20309;-81
2023/12/11 11:10:35;;;;;;;12.95;1.30;;;9.60;99.90;;;;;;5069332;28;20190;-80
2023/12/11 11:13:08;;;;;;;0.60;0.50;;;9.60;99.90;;;;;;5070497;28;20210;-81
2023/12/11 11:15:35;;;;;;;0.68;0.68;;;9.60;99.90;;;;;;5069929;28;20526;-81
2023/12/11 11:18:03;;;;;;;0.50;0.40;;;9.60;99.90;;;;;;5066600;28;20201;-82
2023/12/11 11:20:31;;;;;;;0.40;0.40;;;9.60;99.90;;;;;;5065791;28;20686;-81
2023/12/11 11:23:26;;;;;;;0.50;0.50;;;9.50;99.90;;;;;;5065802;28;20302;-81
2023/12/11 11:25:53;;;;;;;0.40;0.40;;;9.50;99.90;;;;;;5068680;28;20499;-82
2023/12/11 11:28:38;;;;;;;0.40;0.40;;;9.50;99.90;;;;;;5065439;28;20674;-81
2023/12/11 11:31:06;;;;;;;0.50;0.40;;;9.50;99.90;;;;;;5067751;28;20433;-82
2023/12/11 11:33:47;;;;;;;0.50;0.40;;;9.40;99.90;;;;;;5069616;28;20210;-82
2023/12/11 11:36:16;;;;;;;0.40;0.30;;;9.40;99.90;;;;;;5069237;28;20851;-81
2023/12/11 11:38:55;;;;;;;0.75;0.57;;;9.30;99.90;;;;;;5068656;28;20700;-81
2023/12/11 11:41:23;;;;;;;0.50;0.40;;;9.20;99.90;;;;;;5069113;28;20205;-80
2023/12/11 11:44:04;;;;;;;0.50;0.40;;;9.10;99.90;;;;;;5067881;28;20219;-82
2023/12/11 11:46:49;;;;;;;1.60;0.40;;;9.00;99.90;;;;;;5065459;28;20689;-81
2023/12/11 11:49:26;;;;;;;1.67;0.73;;;9.00;99.90;;;;;;5069483;28;20195;-82
2023/12/11 11:51:53;;;;;;;3.78;0.70;;;9.00;99.90;;;;;;5068952;28;20214;-82
2023/12/11 11:54:23;;;;;;;1.02;0.95;;;8.90;99.90;;;;;;5068223;28;20219;-81
2023/12/11 11:56:50;;;;;;;0.85;0.50;;;8.90;99.90;;;;;;5069402;28;20218;-81
2023/12/11 11:59:19;;;;;;;0.50;0.40;;;8.90;99.90;;;;;;5064921;28;20195;-80
2023/12/11 12:01:50;;;;;;;0.40;0.40;;;8.80;99.90;;;;;;5065575;28;20202;-81
2023/12/11 12:04:28;;;;;;;0.40;0.30;;;8.90;99.90;;;;;;5068245;28;20213;-81
2023/12/11 12:06:57;;;;;;;0.40;0.40;;;8.90;99.90;;;;;;5068179;28;20680;-81
2023/12/11 12:09:25;;;;;;;0.40;0.40;;;9.00;99.90;;;;;;5069281;28;20202;-81
2023/12/11 12:11:52;;;;;;;0.50;0.40;;;9.10;99.90;;;;;;5068750;28;20198;-82
2023/12/11 12:14:21;;;;;;;0.60;0.50;;;9.10;99.90;;;;;;5068335;28;20216;-81
2023/12/11 12:16:48;;;;;;;0.70;0.50;;;9.20;99.90;;;;;;5068926;28;20224;-81
2023/12/11 12:19:15;;;;;;;0.40;0.40;;;9.30;99.90;;;;;;5065749;28;20298;-81
2023/12/11 12:21:49;;;;;;;0.50;0.45;;;9.30;99.90;;;;;;5065274;28;20199;-80
2023/12/11 12:24:16;;;;;;;0.60;0.57;;;9.30;99.90;;;;;;5067620;28;20210;-81
2023/12/11 12:26:44;;;;;;;0.65;0.55;;;9.30;99.90;;;;;;5070447;28;20278;-81
2023/12/11 12:29:12;;;;;;;1.42;1.42;;;9.30;99.90;;;;;;5066767;28;20206;-80
2023/12/11 12:31:41;;;;;;;0.50;0.40;;;9.40;99.90;;;;;;5068179;28;20194;-81
2023/12/11 12:34:08;;;;;;;2.78;1.25;;;9.40;99.90;;;;;;5067419;28;20959;-82
2023/12/11 12:36:36;;;;;;;0.77;0.77;;;9.40;99.90;;;;;;5068999;28;20215;-82
2023/12/11 12:39:04;;;;;;;0.68;0.50;;;9.50;99.90;;;;;;5066899;28;20221;-81
2023/12/11 12:41:31;;;;;;;0.40;0.40;;;9.50;99.90;;;;;;5065319;28;20287;-82
2023/12/11 12:43:59;;;;;;;0.57;0.50;;;9.50;99.90;;;;;;5064407;28;20586;-80
2023/12/11 12:46:27;;;;;;;0.40;0.30;;;9.50;99.90;;;;;;5068065;28;20193;-81
2023/12/11 12:48:55;;;;;;;0.40;0.40;;;9.50;99.90;;;;;;5068480;28;20279;-81
2023/12/11 12:51:22;;;;;;;0.50;0.38;;;9.50;99.90;;;;;;5065520;28;20460;-82
2023/12/11 12:53:49;;;;;;;0.65;0.65;;;9.60;99.90;;;;;;5064663;28;20286;-81
2023/12/11 12:56:17;;;;;;;0.50;0.40;;;9.60;99.90;;;;;;5067572;28;20223;-81
2023/12/11 12:58:47;;;;;;;0.40;0.30;;;9.50;99.90;;;;;;5068875;28;20653;-81